createdAt,value
2016-12-10T00:00:21.742Z,1018.91
2016-12-10T00:01:02.278Z,1018.91
2016-12-10T00:01:42.804Z,1018.86
2016-12-10T00:02:23.330Z,1018.88
2016-12-10T00:03:03.885Z,1018.89
2016-12-10T00:03:44.381Z,1018.88
2016-12-10T00:04:24.904Z,1018.86
2016-12-10T00:05:05.437Z,1018.88
2016-12-10T00:05:45.965Z,1018.91
2016-12-10T00:06:26.492Z,1018.88
2016-12-10T00:07:07.032Z,1018.92
2016-12-10T00:07:47.575Z,1018.89
2016-12-10T00:08:28.115Z,1018.88
2016-12-10T00:09:08.646Z,1018.86
2016-12-10T00:09:49.243Z,1018.87
2016-12-10T00:10:29.755Z,1018.9
2016-12-10T00:11:10.295Z,1018.9
2016-12-10T00:11:50.801Z,1018.89
2016-12-10T00:12:31.337Z,1018.92
2016-12-10T00:13:11.855Z,1018.92
2016-12-10T00:13:52.401Z,1018.89
2016-12-10T00:14:32.904Z,1018.92
2016-12-10T00:15:13.439Z,1018.9
2016-12-10T00:15:53.950Z,1018.95
2016-12-10T00:16:34.497Z,1018.94
2016-12-10T00:17:15.007Z,1018.95
2016-12-10T00:17:55.533Z,1018.95
2016-12-10T00:18:36.066Z,1018.97
2016-12-10T00:19:16.644Z,1018.96
2016-12-10T00:19:57.176Z,1018.95
2016-12-10T00:20:37.733Z,1018.96
2016-12-10T00:21:18.253Z,1018.9
2016-12-10T00:21:58.792Z,1018.92
2016-12-10T00:22:39.307Z,1018.93
2016-12-10T00:23:19.841Z,1018.93
2016-12-10T00:24:00.380Z,1018.9
2016-12-10T00:24:40.908Z,1018.89
2016-12-10T00:25:21.426Z,1018.91
2016-12-10T00:26:01.958Z,1018.9
2016-12-10T00:26:42.485Z,1018.85
2016-12-10T00:27:23.001Z,1018.92
2016-12-10T00:28:03.564Z,1018.9
2016-12-10T00:28:44.088Z,1018.91
2016-12-10T00:29:24.613Z,1018.94
2016-12-10T00:30:05.140Z,1018.92
2016-12-10T00:30:45.762Z,1018.94
2016-12-10T00:31:26.260Z,1018.92
2016-12-10T00:32:06.808Z,1018.9
2016-12-10T00:32:47.325Z,1018.9
2016-12-10T00:33:27.855Z,1018.87
2016-12-10T00:34:08.359Z,1018.88
2016-12-10T00:34:48.880Z,1018.85
2016-12-10T00:35:29.440Z,1018.81
2016-12-10T00:36:09.924Z,1018.85
2016-12-10T00:36:50.500Z,1018.84
2016-12-10T00:37:31.036Z,1018.82
2016-12-10T00:38:11.545Z,1018.85
2016-12-10T00:38:52.124Z,1018.86
2016-12-10T00:39:32.653Z,1018.85
2016-12-10T00:40:13.182Z,1018.85
2016-12-10T00:40:53.716Z,1018.86
2016-12-10T00:41:34.226Z,1018.8
2016-12-10T00:42:14.767Z,1018.82
2016-12-10T00:42:55.287Z,1018.81
2016-12-10T00:43:35.817Z,1018.81
2016-12-10T00:44:16.390Z,1018.76
2016-12-10T00:44:56.906Z,1018.79
2016-12-10T00:45:37.414Z,1018.77
2016-12-10T00:46:17.951Z,1018.77
2016-12-10T00:46:58.481Z,1018.78
2016-12-10T00:47:39.011Z,1018.77
2016-12-10T00:48:19.572Z,1018.79
2016-12-10T00:49:00.121Z,1018.73
2016-12-10T00:49:40.637Z,1018.78
2016-12-10T00:50:21.150Z,1018.73
2016-12-10T00:51:01.676Z,1018.71
2016-12-10T00:51:42.210Z,1018.73
2016-12-10T00:52:22.792Z,1018.71
2016-12-10T00:53:03.332Z,1018.67
2016-12-10T00:53:43.874Z,1018.65
2016-12-10T00:54:24.370Z,1018.65
2016-12-10T00:55:04.901Z,1018.67
2016-12-10T00:55:45.449Z,1018.65
2016-12-10T00:56:25.997Z,1018.62
2016-12-10T00:57:06.516Z,1018.66
2016-12-10T00:57:47.065Z,1018.63
2016-12-10T00:58:27.596Z,1018.63
2016-12-10T00:59:08.123Z,1018.66
2016-12-10T00:59:48.666Z,1018.68
2016-12-10T01:00:29.193Z,1018.71
2016-12-10T01:01:09.698Z,1018.71
2016-12-10T01:01:50.205Z,1018.71
2016-12-10T01:02:30.728Z,1018.67
2016-12-10T01:03:11.278Z,1018.61
2016-12-10T01:03:51.833Z,1018.65
2016-12-10T01:04:32.342Z,1018.62
2016-12-10T01:05:12.888Z,1018.66
2016-12-10T01:05:53.406Z,1018.61
2016-12-10T01:06:33.943Z,1018.58
2016-12-10T01:07:14.500Z,1018.62
2016-12-10T01:07:55.046Z,1018.63
2016-12-10T01:08:35.618Z,1018.61
2016-12-10T01:09:16.148Z,1018.65
2016-12-10T01:09:56.682Z,1018.65
2016-12-10T01:10:37.249Z,1018.66
2016-12-10T01:11:17.800Z,1018.67
2016-12-10T01:11:58.309Z,1018.7
2016-12-10T01:12:38.875Z,1018.69
2016-12-10T01:13:19.394Z,1018.68
2016-12-10T01:13:59.949Z,1018.71
2016-12-10T01:14:40.461Z,1018.66
2016-12-10T01:15:21.006Z,1018.68
2016-12-10T01:16:01.509Z,1018.69
2016-12-10T01:16:42.047Z,1018.69
2016-12-10T01:17:22.571Z,1018.7
2016-12-10T01:18:03.091Z,1018.73
2016-12-10T01:18:43.626Z,1018.72
2016-12-10T01:19:24.141Z,1018.74
2016-12-10T01:20:04.690Z,1018.7
2016-12-10T01:20:45.211Z,1018.71
2016-12-10T01:21:25.729Z,1018.71
2016-12-10T01:22:06.252Z,1018.72
2016-12-10T01:22:46.873Z,1018.71
2016-12-10T01:23:27.392Z,1018.75
2016-12-10T01:24:07.910Z,1018.74
2016-12-10T01:24:48.438Z,1018.71
2016-12-10T01:25:28.979Z,1018.69
2016-12-10T01:26:09.521Z,1018.73
2016-12-10T01:26:50.032Z,1018.68
2016-12-10T01:27:30.549Z,1018.69
2016-12-10T01:28:11.098Z,1018.68
2016-12-10T01:28:51.646Z,1018.67
2016-12-10T01:29:32.199Z,1018.63
2016-12-10T01:30:12.698Z,1018.62
2016-12-10T01:30:53.247Z,1018.67
2016-12-10T01:31:33.750Z,1018.61
2016-12-10T01:32:14.296Z,1018.64
2016-12-10T01:32:54.849Z,1018.61
2016-12-10T01:33:35.368Z,1018.59
2016-12-10T01:34:15.889Z,1018.61
2016-12-10T01:34:56.431Z,1018.62
2016-12-10T01:35:36.954Z,1018.63
2016-12-10T01:36:17.487Z,1018.62
2016-12-10T01:36:57.987Z,1018.66
2016-12-10T01:37:38.553Z,1018.68
2016-12-10T01:38:19.086Z,1018.71
2016-12-10T01:38:59.584Z,1018.73
2016-12-10T01:39:40.115Z,1018.72
2016-12-10T01:40:20.686Z,1018.8
2016-12-10T01:41:01.217Z,1018.77
2016-12-10T01:41:41.752Z,1018.78
2016-12-10T01:42:22.267Z,1018.79
2016-12-10T01:43:02.788Z,1018.78
2016-12-10T01:43:43.327Z,1018.71
2016-12-10T01:44:23.832Z,1018.74
2016-12-10T01:45:04.358Z,1018.78
2016-12-10T01:45:44.900Z,1018.73
2016-12-10T01:46:25.438Z,1018.75
2016-12-10T01:47:05.974Z,1018.8
2016-12-10T01:47:46.617Z,1018.78
2016-12-10T01:48:27.113Z,1018.78
2016-12-10T01:49:07.651Z,1018.82
2016-12-10T01:49:48.170Z,1018.81
2016-12-10T01:50:28.761Z,1018.81
2016-12-10T01:51:09.283Z,1018.83
2016-12-10T01:51:49.829Z,1018.79
2016-12-10T01:52:30.379Z,1018.8
2016-12-10T01:53:10.919Z,1018.82
2016-12-10T01:53:51.482Z,1018.75
2016-12-10T01:54:32.023Z,1018.73
2016-12-10T01:55:12.577Z,1018.76
2016-12-10T01:55:53.148Z,1018.73
2016-12-10T01:56:33.730Z,1018.67
2016-12-10T01:57:14.209Z,1018.72
2016-12-10T01:57:54.719Z,1018.67
2016-12-10T01:58:35.245Z,1018.66
2016-12-10T01:59:15.764Z,1018.61
2016-12-10T01:59:56.301Z,1018.62
2016-12-10T02:00:36.826Z,1018.6
2016-12-10T02:01:17.521Z,1018.6
2016-12-10T02:01:58.066Z,1018.59
2016-12-10T02:02:38.567Z,1018.59
2016-12-10T02:03:19.083Z,1018.63
2016-12-10T02:03:59.587Z,1018.61
2016-12-10T02:04:40.118Z,1018.59
2016-12-10T02:05:20.677Z,1018.6
2016-12-10T02:06:01.203Z,1018.6
2016-12-10T02:06:41.736Z,1018.58
2016-12-10T02:07:22.291Z,1018.53
2016-12-10T02:08:02.829Z,1018.57
2016-12-10T02:08:43.356Z,1018.53
2016-12-10T02:09:23.872Z,1018.51
2016-12-10T02:10:04.416Z,1018.5
2016-12-10T02:10:44.941Z,1018.54
2016-12-10T02:11:25.447Z,1018.51
2016-12-10T02:12:05.985Z,1018.49
2016-12-10T02:12:46.495Z,1018.5
2016-12-10T02:13:27.003Z,1018.44
2016-12-10T02:14:07.531Z,1018.46
2016-12-10T02:14:48.056Z,1018.43
2016-12-10T02:15:28.577Z,1018.43
2016-12-10T02:16:09.109Z,1018.42
2016-12-10T02:16:49.607Z,1018.4
2016-12-10T02:17:30.149Z,1018.43
2016-12-10T02:18:10.685Z,1018.44
2016-12-10T02:18:51.257Z,1018.4
2016-12-10T02:19:31.786Z,1018.43
2016-12-10T02:20:12.327Z,1018.4
2016-12-10T02:20:52.883Z,1018.35
2016-12-10T02:21:33.448Z,1018.36
2016-12-10T02:22:13.987Z,1018.31
2016-12-10T02:22:54.513Z,1018.38
2016-12-10T02:23:35.137Z,1018.32
2016-12-10T02:24:15.654Z,1018.33
2016-12-10T02:24:56.184Z,1018.32
2016-12-10T02:25:36.741Z,1018.33
2016-12-10T02:26:17.317Z,1018.32
2016-12-10T02:26:57.845Z,1018.33
2016-12-10T02:27:38.368Z,1018.34
2016-12-10T02:28:18.877Z,1018.31
2016-12-10T02:28:59.413Z,1018.31
2016-12-10T02:29:39.950Z,1018.27
2016-12-10T02:30:20.506Z,1018.31
2016-12-10T02:31:01.036Z,1018.26
2016-12-10T02:31:41.596Z,1018.27
2016-12-10T02:32:22.106Z,1018.32
2016-12-10T02:33:02.644Z,1018.28
2016-12-10T02:33:43.198Z,1018.26
2016-12-10T02:34:23.750Z,1018.31
2016-12-10T02:35:04.316Z,1018.35
2016-12-10T02:35:44.852Z,1018.31
2016-12-10T02:36:25.404Z,1018.33
2016-12-10T02:37:05.929Z,1018.33
2016-12-10T02:37:46.465Z,1018.37
2016-12-10T02:38:27.026Z,1018.38
2016-12-10T02:39:07.508Z,1018.32
2016-12-10T02:39:48.110Z,1018.32
2016-12-10T02:40:28.740Z,1018.29
2016-12-10T02:41:09.366Z,1018.29
2016-12-10T02:41:49.913Z,1018.28
2016-12-10T02:42:30.469Z,1018.27
2016-12-10T02:43:11.018Z,1018.23
2016-12-10T02:43:51.534Z,1018.27
2016-12-10T02:44:32.057Z,1018.25
2016-12-10T02:45:12.584Z,1018.26
2016-12-10T02:45:53.113Z,1018.25
2016-12-10T02:46:33.631Z,1018.26
2016-12-10T02:47:14.161Z,1018.29
2016-12-10T02:47:54.708Z,1018.23
2016-12-10T02:48:35.254Z,1018.21
2016-12-10T02:49:15.774Z,1018.19
2016-12-10T02:49:56.321Z,1018.17
2016-12-10T02:50:36.860Z,1018.12
2016-12-10T02:51:17.393Z,1018.1
2016-12-10T02:51:57.960Z,1018.07
2016-12-10T02:52:38.465Z,1018.09
2016-12-10T02:53:19.012Z,1018.07
2016-12-10T02:53:59.548Z,1018.02
2016-12-10T02:54:40.078Z,1018.01
2016-12-10T02:55:20.580Z,1018.03
2016-12-10T02:56:01.078Z,1018.01
2016-12-10T02:56:41.588Z,1017.95
2016-12-10T02:57:22.133Z,1017.96
2016-12-10T02:58:02.657Z,1017.95
2016-12-10T02:58:43.205Z,1017.92
2016-12-10T02:59:23.739Z,1017.95
2016-12-10T03:00:04.276Z,1017.85
2016-12-10T03:00:44.801Z,1017.91
2016-12-10T03:01:25.310Z,1017.85
2016-12-10T03:02:05.841Z,1017.87
2016-12-10T03:02:46.376Z,1017.81
2016-12-10T03:03:26.928Z,1017.83
2016-12-10T03:04:07.442Z,1017.79
2016-12-10T03:04:47.984Z,1017.8
2016-12-10T03:05:28.543Z,1017.78
2016-12-10T03:06:09.025Z,1017.77
2016-12-10T03:06:49.565Z,1017.73
2016-12-10T03:07:30.117Z,1017.74
2016-12-10T03:08:10.667Z,1017.72
2016-12-10T03:08:51.314Z,1017.72
2016-12-10T03:09:31.844Z,1017.73
2016-12-10T03:10:12.370Z,1017.72
2016-12-10T03:10:52.911Z,1017.67
2016-12-10T03:11:33.427Z,1017.7
2016-12-10T03:12:13.962Z,1017.64
2016-12-10T03:12:54.488Z,1017.63
2016-12-10T03:13:35.029Z,1017.64
2016-12-10T03:14:15.556Z,1017.61
2016-12-10T03:14:56.116Z,1017.58
2016-12-10T03:15:36.619Z,1017.56
2016-12-10T03:16:17.151Z,1017.57
2016-12-10T03:16:57.682Z,1017.55
2016-12-10T03:17:38.192Z,1017.55
2016-12-10T03:18:18.717Z,1017.51
2016-12-10T03:18:59.263Z,1017.51
2016-12-10T03:19:39.797Z,1017.5
2016-12-10T03:20:20.324Z,1017.47
2016-12-10T03:21:00.861Z,1017.46
2016-12-10T03:21:41.419Z,1017.45
2016-12-10T03:22:21.959Z,1017.44
2016-12-10T03:23:02.482Z,1017.39
2016-12-10T03:23:42.999Z,1017.33
2016-12-10T03:24:23.518Z,1017.3
2016-12-10T03:25:04.050Z,1017.25
2016-12-10T03:25:44.580Z,1017.25
2016-12-10T03:26:25.111Z,1017.26
2016-12-10T03:27:05.659Z,1017.26
2016-12-10T03:27:46.200Z,1017.23
2016-12-10T03:28:26.763Z,1017.18
2016-12-10T03:29:07.293Z,1017.14
2016-12-10T03:29:47.845Z,1017.15
2016-12-10T03:30:28.382Z,1017.14
2016-12-10T03:31:08.902Z,1017.14
2016-12-10T03:31:49.422Z,1017.11
2016-12-10T03:32:29.948Z,1017.12
2016-12-10T03:33:10.501Z,1017.12
2016-12-10T03:33:51.023Z,1017.12
2016-12-10T03:34:31.540Z,1017.09
2016-12-10T03:35:12.045Z,1017.07
2016-12-10T03:35:52.573Z,1017.05
2016-12-10T03:36:33.114Z,1017.08
2016-12-10T03:37:13.662Z,1017
2016-12-10T03:37:54.214Z,1017.04
2016-12-10T03:38:34.743Z,1016.99
2016-12-10T03:39:15.270Z,1016.97
2016-12-10T03:39:55.799Z,1016.99
2016-12-10T03:40:36.323Z,1016.96
2016-12-10T03:41:16.891Z,1017
2016-12-10T03:41:57.413Z,1017
2016-12-10T03:42:37.982Z,1016.97
2016-12-10T03:43:18.510Z,1017.01
2016-12-10T03:43:59.097Z,1017.05
2016-12-10T03:44:39.600Z,1017.05
2016-12-10T03:45:20.121Z,1017.09
2016-12-10T03:46:00.703Z,1017.11
2016-12-10T03:46:41.216Z,1017.12
2016-12-10T03:47:21.730Z,1017.14
2016-12-10T03:48:02.277Z,1017.07
2016-12-10T03:48:42.813Z,1017.17
2016-12-10T03:49:23.343Z,1017.04
2016-12-10T03:50:03.874Z,1017.06
2016-12-10T03:50:44.386Z,1017.11
2016-12-10T03:51:24.903Z,1017.06
2016-12-10T03:52:05.411Z,1017.05
2016-12-10T03:52:45.939Z,1017.01
2016-12-10T03:53:26.498Z,1016.98
2016-12-10T03:54:07.024Z,1016.92
2016-12-10T03:54:47.540Z,1016.96
2016-12-10T03:55:28.046Z,1016.9
2016-12-10T03:56:08.551Z,1016.91
2016-12-10T03:56:49.055Z,1016.92
2016-12-10T03:57:29.577Z,1016.93
2016-12-10T03:58:10.101Z,1016.97
2016-12-10T03:58:50.611Z,1016.91
2016-12-10T03:59:31.127Z,1016.95
2016-12-10T04:00:11.642Z,1016.97
2016-12-10T04:00:52.148Z,1016.95
2016-12-10T04:01:32.676Z,1016.98
2016-12-10T04:02:13.209Z,1016.95
2016-12-10T04:02:53.727Z,1016.98
2016-12-10T04:03:34.288Z,1017
2016-12-10T04:04:14.800Z,1017
2016-12-10T04:04:55.321Z,1016.98
2016-12-10T04:05:35.893Z,1016.98
2016-12-10T04:06:16.427Z,1017.06
2016-12-10T04:06:56.973Z,1017.08
2016-12-10T04:07:37.479Z,1017.11
2016-12-10T04:08:18.006Z,1017.15
2016-12-10T04:08:58.578Z,1017.13
2016-12-10T04:09:39.110Z,1017.15
2016-12-10T04:10:19.670Z,1017.06
2016-12-10T04:11:00.191Z,1017.12
2016-12-10T04:11:40.692Z,1017.12
2016-12-10T04:12:21.211Z,1017.15
2016-12-10T04:13:01.735Z,1017.18
2016-12-10T04:13:42.245Z,1017.14
2016-12-10T04:14:22.760Z,1017.14
2016-12-10T04:15:03.322Z,1017.11
2016-12-10T04:15:43.862Z,1017.11
2016-12-10T04:16:24.395Z,1017.11
2016-12-10T04:17:04.920Z,1017.13
2016-12-10T04:17:45.456Z,1017.15
2016-12-10T04:18:26.008Z,1017.09
2016-12-10T04:19:06.522Z,1017.13
2016-12-10T04:19:47.059Z,1017.14
2016-12-10T04:20:27.549Z,1017.09
2016-12-10T04:21:08.075Z,1017.06
2016-12-10T04:21:48.589Z,1017.05
2016-12-10T04:22:29.121Z,1017.09
2016-12-10T04:23:09.659Z,1017.09
2016-12-10T04:23:50.179Z,1017.06
2016-12-10T04:24:30.694Z,1017.05
2016-12-10T04:25:11.243Z,1017.11
2016-12-10T04:25:51.796Z,1017.03
2016-12-10T04:26:32.328Z,1017.02
2016-12-10T04:27:12.843Z,1017.02
2016-12-10T04:27:53.358Z,1017.08
2016-12-10T04:28:33.902Z,1017.04
2016-12-10T04:29:14.424Z,1017.08
2016-12-10T04:29:54.945Z,1017.09
2016-12-10T04:30:35.462Z,1017.09
2016-12-10T04:31:15.990Z,1017.1
2016-12-10T04:31:56.506Z,1017.08
2016-12-10T04:32:37.030Z,1017.08
2016-12-10T04:33:17.557Z,1017.07
2016-12-10T04:33:58.081Z,1017.1
2016-12-10T04:34:38.601Z,1017.13
2016-12-10T04:35:19.119Z,1017.1
2016-12-10T04:35:59.624Z,1017.08
2016-12-10T04:36:40.155Z,1017.11
2016-12-10T04:37:20.676Z,1017.1
2016-12-10T04:38:01.196Z,1017.12
2016-12-10T04:38:41.722Z,1017.12
2016-12-10T04:39:22.247Z,1017.03
2016-12-10T04:40:02.796Z,1017
2016-12-10T04:40:43.325Z,1016.96
2016-12-10T04:41:23.887Z,1016.97
2016-12-10T04:42:04.399Z,1016.93
2016-12-10T04:42:44.913Z,1016.98
2016-12-10T04:43:25.470Z,1016.97
2016-12-10T04:44:06.004Z,1017
2016-12-10T04:44:46.567Z,1016.99
2016-12-10T04:45:27.064Z,1017
2016-12-10T04:46:07.582Z,1016.94
2016-12-10T04:46:48.121Z,1016.95
2016-12-10T04:47:28.657Z,1016.95
2016-12-10T04:48:09.185Z,1016.97
2016-12-10T04:48:49.696Z,1016.93
2016-12-10T04:49:30.233Z,1017
2016-12-10T04:50:10.782Z,1016.96
2016-12-10T04:50:51.338Z,1016.94
2016-12-10T04:51:31.864Z,1016.95
2016-12-10T04:52:12.409Z,1016.93
2016-12-10T04:52:52.927Z,1016.89
2016-12-10T04:53:33.454Z,1016.9
2016-12-10T04:54:13.986Z,1016.82
2016-12-10T04:54:54.495Z,1016.85
2016-12-10T04:55:35.020Z,1016.85
2016-12-10T04:56:15.542Z,1016.76
2016-12-10T04:56:56.089Z,1016.8
2016-12-10T04:57:36.635Z,1016.77
2016-12-10T04:58:17.190Z,1016.76
2016-12-10T04:58:57.818Z,1016.77
2016-12-10T04:59:38.332Z,1016.76
2016-12-10T05:00:18.856Z,1016.72
2016-12-10T05:00:59.395Z,1016.7
2016-12-10T05:01:39.912Z,1016.69
2016-12-10T05:02:20.464Z,1016.7
2016-12-10T05:03:00.957Z,1016.65
2016-12-10T05:03:41.484Z,1016.66
2016-12-10T05:04:22.006Z,1016.64
2016-12-10T05:05:02.544Z,1016.62
2016-12-10T05:05:43.073Z,1016.59
2016-12-10T05:06:23.617Z,1016.58
2016-12-10T05:07:04.159Z,1016.55
2016-12-10T05:07:44.700Z,1016.57
2016-12-10T05:08:25.187Z,1016.51
2016-12-10T05:09:05.697Z,1016.56
2016-12-10T05:09:46.235Z,1016.52
2016-12-10T05:10:26.767Z,1016.49
2016-12-10T05:11:07.268Z,1016.45
2016-12-10T05:11:47.791Z,1016.5
2016-12-10T05:12:28.321Z,1016.49
2016-12-10T05:13:08.859Z,1016.43
2016-12-10T05:13:49.384Z,1016.4
2016-12-10T05:14:29.908Z,1016.38
2016-12-10T05:15:10.423Z,1016.4
2016-12-10T05:15:50.935Z,1016.35
2016-12-10T05:16:31.452Z,1016.34
2016-12-10T05:17:11.967Z,1016.36
2016-12-10T05:17:52.490Z,1016.34
2016-12-10T05:18:33.010Z,1016.29
2016-12-10T05:19:13.557Z,1016.31
2016-12-10T05:19:54.116Z,1016.36
2016-12-10T05:20:34.622Z,1016.42
2016-12-10T05:21:15.150Z,1016.44
2016-12-10T05:21:55.676Z,1016.48
2016-12-10T05:22:36.215Z,1016.39
2016-12-10T05:23:16.726Z,1016.43
2016-12-10T05:23:57.224Z,1016.47
2016-12-10T05:24:37.751Z,1016.43
2016-12-10T05:25:18.283Z,1016.54
2016-12-10T05:25:58.844Z,1016.51
2016-12-10T05:26:39.354Z,1016.48
2016-12-10T05:27:19.882Z,1016.4
2016-12-10T05:28:00.409Z,1016.46
2016-12-10T05:28:40.959Z,1016.42
2016-12-10T05:29:21.490Z,1016.39
2016-12-10T05:30:02.008Z,1016.4
2016-12-10T05:30:42.523Z,1016.36
2016-12-10T05:31:23.055Z,1016.38
2016-12-10T05:32:03.588Z,1016.33
2016-12-10T05:32:44.117Z,1016.37
2016-12-10T05:33:24.623Z,1016.31
2016-12-10T05:34:05.151Z,1016.31
2016-12-10T05:34:45.677Z,1016.27
2016-12-10T05:35:26.202Z,1016.27
2016-12-10T05:36:06.706Z,1016.26
2016-12-10T05:36:47.225Z,1016.25
2016-12-10T05:37:27.767Z,1016.28
2016-12-10T05:38:08.335Z,1016.22
2016-12-10T05:38:48.850Z,1016.23
2016-12-10T05:39:29.384Z,1016.2
2016-12-10T05:40:09.921Z,1016.26
2016-12-10T05:40:50.462Z,1016.27
2016-12-10T05:41:31.003Z,1016.22
2016-12-10T05:42:11.529Z,1016.27
2016-12-10T05:42:52.122Z,1016.27
2016-12-10T05:43:32.663Z,1016.24
2016-12-10T05:44:13.204Z,1016.27
2016-12-10T05:44:53.721Z,1016.24
2016-12-10T05:45:34.242Z,1016.26
2016-12-10T05:46:14.757Z,1016.22
2016-12-10T05:46:55.293Z,1016.27
2016-12-10T05:47:35.816Z,1016.32
2016-12-10T05:48:16.338Z,1016.34
2016-12-10T05:48:56.858Z,1016.42
2016-12-10T05:49:37.399Z,1016.48
2016-12-10T05:50:17.903Z,1016.49
2016-12-10T05:50:58.428Z,1016.52
2016-12-10T05:51:38.954Z,1016.54
2016-12-10T05:52:19.469Z,1016.52
2016-12-10T05:53:00.001Z,1016.57
2016-12-10T05:53:40.526Z,1016.61
2016-12-10T05:54:21.062Z,1016.59
2016-12-10T05:55:01.617Z,1016.67
2016-12-10T05:55:42.132Z,1016.68
2016-12-10T05:56:22.653Z,1016.65
2016-12-10T05:57:03.191Z,1016.67
2016-12-10T05:57:43.709Z,1016.67
2016-12-10T05:58:24.237Z,1016.7
2016-12-10T05:59:04.788Z,1016.73
2016-12-10T05:59:45.345Z,1016.73
2016-12-10T06:00:25.845Z,1016.72
2016-12-10T06:01:06.405Z,1016.71
2016-12-10T06:01:46.945Z,1016.7
2016-12-10T06:02:27.474Z,1016.74
2016-12-10T06:03:08.001Z,1016.74
2016-12-10T06:03:48.513Z,1016.71
2016-12-10T06:04:29.056Z,1016.79
2016-12-10T06:05:09.579Z,1016.77
2016-12-10T06:05:50.141Z,1016.81
2016-12-10T06:06:30.685Z,1016.81
2016-12-10T06:07:11.223Z,1016.78
2016-12-10T06:07:51.771Z,1016.84
2016-12-10T06:08:32.307Z,1016.8
2016-12-10T06:09:12.870Z,1016.82
2016-12-10T06:09:53.391Z,1016.82
2016-12-10T06:10:33.942Z,1016.85
2016-12-10T06:11:14.467Z,1016.88
2016-12-10T06:11:54.998Z,1016.86
2016-12-10T06:12:35.547Z,1016.81
2016-12-10T06:13:16.072Z,1016.86
2016-12-10T06:13:56.578Z,1016.85
2016-12-10T06:14:37.110Z,1016.83
2016-12-10T06:15:17.624Z,1016.81
2016-12-10T06:15:58.160Z,1016.89
2016-12-10T06:16:38.675Z,1016.9
2016-12-10T06:17:19.195Z,1016.89
2016-12-10T06:17:59.713Z,1016.89
2016-12-10T06:18:40.235Z,1016.9
2016-12-10T06:19:20.754Z,1016.98
2016-12-10T06:20:01.286Z,1016.97
2016-12-10T06:20:41.879Z,1016.99
2016-12-10T06:21:22.395Z,1017.04
2016-12-10T06:22:02.947Z,1017.04
2016-12-10T06:22:43.475Z,1017.02
2016-12-10T06:23:24.023Z,1017.04
2016-12-10T06:24:04.541Z,1016.99
2016-12-10T06:24:45.048Z,1016.99
2016-12-10T06:25:25.569Z,1016.99
2016-12-10T06:26:06.117Z,1016.98
2016-12-10T06:26:46.640Z,1016.96
2016-12-10T06:27:27.210Z,1016.98
2016-12-10T06:28:07.728Z,1017.03
2016-12-10T06:28:48.308Z,1017.02
2016-12-10T06:29:28.789Z,1017.02
2016-12-10T06:30:09.328Z,1017.04
2016-12-10T06:30:49.890Z,1017.02
2016-12-10T06:31:30.384Z,1017.02
2016-12-10T06:32:10.901Z,1017.05
2016-12-10T06:32:51.405Z,1017.05
2016-12-10T06:33:31.943Z,1017.05
2016-12-10T06:34:12.479Z,1017.05
2016-12-10T06:34:53.000Z,1017.04
2016-12-10T06:35:33.581Z,1017.09
2016-12-10T06:36:14.109Z,1017.06
2016-12-10T06:36:54.645Z,1017.08
2016-12-10T06:37:35.206Z,1017.09
2016-12-10T06:38:15.720Z,1017.09
2016-12-10T06:38:56.274Z,1017.07
2016-12-10T06:39:36.786Z,1017.06
2016-12-10T06:40:17.309Z,1017.04
2016-12-10T06:40:57.840Z,1017.01
2016-12-10T06:41:38.353Z,1017.01
2016-12-10T06:42:18.863Z,1017.06
2016-12-10T06:42:59.406Z,1017
2016-12-10T06:43:39.933Z,1017.01
2016-12-10T06:44:20.471Z,1017
2016-12-10T06:45:01.015Z,1017.02
2016-12-10T06:45:41.566Z,1017
2016-12-10T06:46:22.110Z,1016.99
2016-12-10T06:47:02.632Z,1017.04
2016-12-10T06:47:43.152Z,1017.05
2016-12-10T06:48:23.693Z,1016.99
2016-12-10T06:49:04.243Z,1017.01
2016-12-10T06:49:44.777Z,1017.01
2016-12-10T06:50:25.305Z,1017.03
2016-12-10T06:51:05.836Z,1017.03
2016-12-10T06:51:46.347Z,1017.04
2016-12-10T06:52:26.887Z,1017.06
2016-12-10T06:53:07.430Z,1017.03
2016-12-10T06:53:47.967Z,1017.09
2016-12-10T06:54:28.486Z,1017.05
2016-12-10T06:55:09.039Z,1017.05
2016-12-10T06:55:49.553Z,1017.05
2016-12-10T06:56:30.118Z,1017.05
2016-12-10T06:57:10.659Z,1017.03
2016-12-10T06:57:51.178Z,1017.02
2016-12-10T06:58:31.702Z,1017.02
2016-12-10T06:59:12.232Z,1017.02
2016-12-10T06:59:52.774Z,1017.03
2016-12-10T07:00:33.313Z,1017.02
2016-12-10T07:01:13.844Z,1017
2016-12-10T07:01:54.404Z,1017
2016-12-10T07:02:34.880Z,1017.07
2016-12-10T07:03:15.432Z,1017
2016-12-10T07:03:55.949Z,1017.07
2016-12-10T07:04:36.488Z,1017.09
2016-12-10T07:05:17.006Z,1017.04
2016-12-10T07:05:57.523Z,1017.07
2016-12-10T07:06:38.072Z,1017.07
2016-12-10T07:07:18.595Z,1017.05
2016-12-10T07:07:59.106Z,1017.09
2016-12-10T07:08:39.659Z,1017.1
2016-12-10T07:09:20.163Z,1017.07
2016-12-10T07:10:00.681Z,1017.08
2016-12-10T07:10:41.239Z,1017.1
2016-12-10T07:11:21.738Z,1017.08
2016-12-10T07:12:02.279Z,1017.07
2016-12-10T07:12:42.808Z,1017.08
2016-12-10T07:13:23.302Z,1017.11
2016-12-10T07:14:03.817Z,1017.03
2016-12-10T07:14:44.343Z,1017.05
2016-12-10T07:15:24.895Z,1017.02
2016-12-10T07:16:05.444Z,1017.09
2016-12-10T07:16:45.984Z,1017.04
2016-12-10T07:17:26.502Z,1017.01
2016-12-10T07:18:07.011Z,1016.99
2016-12-10T07:18:47.546Z,1016.97
2016-12-10T07:19:28.109Z,1016.98
2016-12-10T07:20:08.597Z,1016.97
2016-12-10T07:20:49.130Z,1016.97
2016-12-10T07:21:29.679Z,1017.01
2016-12-10T07:22:10.217Z,1016.99
2016-12-10T07:22:50.748Z,1017
2016-12-10T07:23:31.283Z,1017.01
2016-12-10T07:24:11.782Z,1016.99
2016-12-10T07:24:52.318Z,1016.97
2016-12-10T07:25:32.849Z,1016.99
2016-12-10T07:26:13.396Z,1017.04
2016-12-10T07:26:53.917Z,1017.02
2016-12-10T07:27:34.438Z,1016.95
2016-12-10T07:28:14.976Z,1016.92
2016-12-10T07:28:55.500Z,1016.89
2016-12-10T07:29:36.036Z,1016.85
2016-12-10T07:30:16.565Z,1016.78
2016-12-10T07:30:57.077Z,1016.78
2016-12-10T07:31:37.595Z,1016.82
2016-12-10T07:32:18.117Z,1016.8
2016-12-10T07:32:58.640Z,1016.82
2016-12-10T07:33:39.155Z,1016.82
2016-12-10T07:34:19.695Z,1016.86
2016-12-10T07:35:00.228Z,1016.86
2016-12-10T07:35:40.754Z,1016.86
2016-12-10T07:36:21.324Z,1016.84
2016-12-10T07:37:01.855Z,1016.88
2016-12-10T07:37:42.381Z,1016.89
2016-12-10T07:38:22.901Z,1016.91
2016-12-10T07:39:03.442Z,1016.94
2016-12-10T07:39:43.998Z,1016.94
2016-12-10T07:40:24.549Z,1016.93
2016-12-10T07:41:05.076Z,1016.97
2016-12-10T07:41:45.613Z,1016.94
2016-12-10T07:42:26.148Z,1016.97
2016-12-10T07:43:06.680Z,1016.9
2016-12-10T07:43:47.231Z,1016.91
2016-12-10T07:44:28.574Z,1016.95
2016-12-10T07:45:09.105Z,1016.97
2016-12-10T07:45:49.627Z,1016.95
2016-12-10T07:46:30.151Z,1016.95
2016-12-10T07:47:10.673Z,1016.93
2016-12-10T07:47:51.189Z,1016.95
2016-12-10T07:48:31.711Z,1016.92
2016-12-10T07:49:12.207Z,1016.95
2016-12-10T07:49:52.714Z,1016.98
2016-12-10T07:50:33.218Z,1016.97
2016-12-10T07:51:13.786Z,1017.01
2016-12-10T07:51:54.291Z,1017.04
2016-12-10T07:52:34.815Z,1017.05
2016-12-10T07:53:15.364Z,1017.03
2016-12-10T07:53:55.870Z,1017.08
2016-12-10T07:54:36.374Z,1017.09
2016-12-10T07:55:16.905Z,1017.04
2016-12-10T07:55:57.437Z,1017.11
2016-12-10T07:56:37.972Z,1017.13
2016-12-10T07:57:18.481Z,1017.11
2016-12-10T07:57:59.006Z,1017.11
2016-12-10T07:58:39.535Z,1017.14
2016-12-10T07:59:20.142Z,1017.13
2016-12-10T08:00:00.621Z,1017.15
2016-12-10T08:00:41.144Z,1017.15
2016-12-10T08:01:21.657Z,1017.17
2016-12-10T08:02:02.172Z,1017.14
2016-12-10T08:02:42.712Z,1017.07
2016-12-10T08:03:23.198Z,1017
2016-12-10T08:04:03.734Z,1017.1
2016-12-10T08:04:44.235Z,1017.04
2016-12-10T08:05:24.746Z,1017.03
2016-12-10T08:06:05.297Z,1017.05
2016-12-10T08:06:45.782Z,1017.03
2016-12-10T08:07:26.270Z,1017.03
2016-12-10T08:08:06.787Z,1017.06
2016-12-10T08:08:47.272Z,1017.09
2016-12-10T08:09:27.893Z,1017.05
2016-12-10T08:10:08.374Z,1017.15
2016-12-10T08:10:48.897Z,1017.15
2016-12-10T08:11:29.433Z,1017.2
2016-12-10T08:12:09.961Z,1017.17
2016-12-10T08:12:50.465Z,1017.23